createdAt,value
2019-04-14T00:00:22.975Z,94.60
2019-04-14T00:03:05.168Z,94.60
2019-04-14T00:05:35.467Z,94.60
2019-04-14T00:08:05.281Z,94.80
2019-04-14T00:10:33.789Z,94.90
2019-04-14T00:13:02.538Z,94.60
2019-04-14T00:15:38.841Z,94.50
2019-04-14T00:18:01.445Z,94.60
2019-04-14T00:20:29.902Z,94.50
2019-04-14T00:22:59.677Z,94.40
2019-04-14T00:25:28.432Z,94.20
2019-04-14T00:27:57.285Z,94.40
2019-04-14T00:30:27.229Z,94.40
2019-04-14T00:33:01.811Z,94.40
2019-04-14T00:35:47.208Z,94.20
2019-04-14T00:38:20.185Z,94.30
2019-04-14T00:41:05.327Z,94.30
2019-04-14T00:43:35.441Z,94.10
2019-04-14T00:46:14.718Z,94.40
2019-04-14T00:48:45.248Z,94.40
2019-04-14T00:51:13.759Z,94.60
2019-04-14T00:53:42.614Z,94.70
2019-04-14T00:56:11.082Z,94.80
2019-04-14T00:58:39.553Z,94.90
2019-04-14T01:01:09.060Z,95.00
2019-04-14T01:03:37.746Z,95.20
2019-04-14T01:06:07.535Z,95.30
2019-04-14T01:08:38.330Z,95.30
2019-04-14T01:11:07.396Z,95.40
2019-04-14T01:13:36.137Z,95.50
2019-04-14T01:16:11.548Z,95.60
2019-04-14T01:18:34.926Z,95.40
2019-04-14T01:21:04.503Z,95.30
2019-04-14T01:23:33.101Z,95.30
2019-04-14T01:26:02.803Z,95.30
2019-04-14T01:28:32.888Z,95.20
2019-04-14T01:31:01.491Z,95.20
2019-04-14T01:33:29.945Z,95.20
2019-04-14T01:35:59.630Z,95.30
2019-04-14T01:38:28.213Z,95.40
2019-04-14T01:40:57.690Z,95.40
2019-04-14T01:43:27.719Z,95.40
2019-04-14T01:46:05.205Z,95.40
2019-04-14T01:48:27.965Z,95.30
2019-04-14T01:50:58.450Z,95.30
2019-04-14T01:53:33.977Z,95.20
2019-04-14T01:56:04.089Z,95.30
2019-04-14T01:58:34.217Z,95.20
2019-04-14T02:01:07.004Z,95.20
2019-04-14T02:03:36.550Z,95.10
2019-04-14T02:06:05.288Z,95.00
2019-04-14T02:08:35.067Z,94.80
2019-04-14T02:11:05.117Z,94.70
2019-04-14T02:13:33.790Z,94.80
2019-04-14T02:16:16.475Z,94.80
2019-04-14T02:18:32.443Z,94.70
2019-04-14T02:21:02.039Z,94.80
2019-04-14T02:23:30.708Z,94.80
2019-04-14T02:26:00.097Z,94.70
2019-04-14T02:28:28.958Z,94.60
2019-04-14T02:31:10.320Z,94.50
2019-04-14T02:33:50.562Z,94.60
2019-04-14T02:36:32.269Z,94.50
2019-04-14T02:41:29.681Z,94.40
2019-04-14T02:43:58.059Z,94.40
2019-04-14T02:46:32.201Z,94.40
2019-04-14T02:51:26.919Z,94.40
2019-04-14T02:53:57.695Z,94.50
2019-04-14T03:04:09.039Z,94.60
2019-04-14T03:06:29.249Z,94.50
2019-04-14T03:11:43.988Z,94.80
2019-04-14T03:13:58.585Z,94.90
2019-04-14T03:19:06.741Z,94.90
2019-04-14T03:21:40.327Z,94.80
2019-04-14T03:24:29.253Z,94.80
2019-04-14T03:29:43.232Z,94.60
2019-04-14T03:32:31.822Z,94.40
2019-04-14T03:34:42.216Z,94.30
2019-04-14T03:39:49.621Z,94.30
2019-04-14T03:42:24.949Z,94.40
2019-04-14T03:44:48.940Z,94.50
2019-04-14T03:49:45.528Z,94.50
2019-04-14T03:52:18.999Z,94.60
2019-04-14T03:54:40.429Z,94.50
2019-04-14T03:56:53.643Z,94.70
2019-04-14T03:59:23.848Z,94.60
2019-04-14T04:01:52.540Z,94.80
2019-04-14T04:04:22.589Z,94.90
2019-04-14T04:06:51.329Z,95.10
2019-04-14T04:09:21.503Z,95.20
2019-04-14T04:11:49.986Z,95.30
2019-04-14T04:14:18.785Z,95.40
2019-04-14T04:16:52.861Z,95.40
2019-04-14T04:19:40.921Z,95.30
2019-04-14T04:22:30.322Z,95.20
2019-04-14T04:25:07.323Z,95.20
2019-04-14T04:27:40.323Z,95.10
2019-04-14T04:30:14.441Z,95.00
2019-04-14T04:32:57.873Z,94.80
2019-04-14T04:35:31.079Z,94.70
2019-04-14T04:38:18.091Z,94.50
2019-04-14T04:40:46.707Z,94.50
2019-04-14T04:43:15.182Z,94.50
2019-04-14T04:45:43.651Z,94.40
2019-04-14T04:48:13.153Z,94.40
2019-04-14T04:50:43.060Z,94.40
2019-04-14T04:53:11.656Z,94.40
2019-04-14T04:55:40.146Z,94.40
2019-04-14T04:58:09.973Z,94.40
2019-04-14T05:00:39.469Z,94.50
2019-04-14T05:03:08.100Z,94.50
2019-04-14T05:06:02.691Z,94.20
2019-04-14T05:08:32.587Z,94.20
2019-04-14T05:11:14.696Z,94.40
2019-04-14T05:13:44.789Z,94.60
2019-04-14T05:16:13.262Z,94.70
2019-04-14T05:18:41.905Z,94.60
2019-04-14T05:21:10.695Z,94.60
2019-04-14T05:23:39.176Z,94.60
2019-04-14T05:26:08.916Z,94.50
2019-04-14T05:28:37.994Z,94.60
2019-04-14T05:31:07.518Z,94.90
2019-04-14T05:33:36.422Z,95.00
2019-04-14T05:36:04.862Z,95.10
2019-04-14T05:38:34.400Z,95.20
2019-04-14T05:41:04.654Z,94.90
2019-04-14T05:43:42.898Z,94.40
2019-04-14T05:46:04.000Z,94.60
2019-04-14T05:48:33.641Z,94.80
2019-04-14T05:51:02.515Z,94.70
2019-04-14T05:53:31.061Z,94.60
2019-04-14T05:55:59.515Z,94.50
2019-04-14T05:58:27.972Z,94.30
2019-04-14T06:00:58.017Z,94.10
2019-04-14T06:03:27.680Z,93.60
2019-04-14T06:05:56.473Z,93.80
2019-04-14T06:08:25.066Z,93.70
2019-04-14T06:10:53.543Z,93.90
2019-04-14T06:13:22.011Z,93.90
2019-04-14T06:15:50.455Z,93.60
2019-04-14T06:18:18.919Z,93.80
2019-04-14T06:20:47.362Z,93.70
2019-04-14T06:23:16.139Z,93.70
2019-04-14T06:25:44.623Z,93.30
2019-04-14T06:28:13.115Z,93.40
2019-04-14T06:30:48.877Z,93.20
2019-04-14T06:33:18.980Z,92.90
2019-04-14T06:35:49.088Z,92.00
2019-04-14T06:38:28.450Z,92.30
2019-04-14T06:41:01.563Z,92.50
2019-04-14T06:43:30.004Z,93.00
2019-04-14T06:45:59.206Z,92.40
2019-04-14T06:48:27.659Z,92.60
2019-04-14T06:50:56.107Z,92.40
2019-04-14T06:53:24.565Z,91.70
2019-04-14T06:55:55.075Z,90.80
2019-04-14T06:58:23.723Z,90.20
2019-04-14T07:00:52.154Z,89.90
2019-04-14T07:03:20.965Z,88.80
2019-04-14T07:05:49.400Z,88.70
2019-04-14T07:08:17.864Z,88.00
2019-04-14T07:10:46.352Z,87.30
2019-04-14T07:13:14.808Z,86.70
2019-04-14T07:15:43.270Z,87.00
2019-04-14T07:18:12.154Z,87.20
2019-04-14T07:20:41.231Z,87.20
2019-04-14T07:23:09.701Z,86.60
2019-04-14T07:25:38.132Z,86.30
2019-04-14T07:28:06.587Z,86.40
2019-04-14T07:30:36.694Z,86.50
2019-04-14T07:33:09.463Z,86.70
2019-04-14T07:35:51.738Z,86.70
2019-04-14T07:38:28.241Z,85.80
2019-04-14T07:41:13.320Z,85.70
2019-04-14T07:43:49.189Z,85.70
2019-04-14T07:46:28.192Z,86.20
2019-04-14T07:49:07.358Z,85.90
2019-04-14T07:51:40.262Z,85.80
2019-04-14T07:54:10.363Z,85.30
2019-04-14T07:56:52.221Z,85.10
2019-04-14T07:59:22.769Z,85.30
2019-04-14T08:01:52.868Z,85.20
2019-04-14T08:04:22.953Z,84.90
2019-04-14T08:06:53.181Z,85.30
2019-04-14T08:09:21.627Z,85.20
2019-04-14T08:11:50.080Z,85.10
2019-04-14T08:14:21.638Z,86.40
2019-04-14T08:16:50.089Z,86.60
2019-04-14T08:19:18.597Z,86.50
2019-04-14T08:21:47.117Z,85.50
2019-04-14T08:24:15.551Z,85.10
2019-04-14T08:26:43.999Z,84.20
2019-04-14T08:29:12.457Z,83.50
2019-04-14T08:31:40.882Z,83.20
2019-04-14T08:34:09.641Z,83.70
2019-04-14T08:36:38.080Z,84.10
2019-04-14T08:39:09.921Z,85.10
2019-04-14T08:41:40.010Z,85.80
2019-04-14T08:44:10.122Z,85.80
2019-04-14T08:46:42.999Z,85.20
2019-04-14T08:49:15.874Z,84.00
2019-04-14T08:51:46.226Z,84.00
2019-04-14T08:54:16.645Z,82.90
2019-04-14T08:56:58.648Z,81.50
2019-04-14T08:59:38.068Z,82.50
2019-04-14T09:02:13.833Z,83.70
2019-04-14T09:04:46.850Z,82.70
2019-04-14T09:07:16.921Z,82.40
2019-04-14T09:09:47.353Z,81.00
2019-04-14T09:12:17.461Z,78.40
2019-04-14T09:14:56.302Z,75.00
2019-04-14T09:17:16.068Z,77.40
2019-04-14T09:19:44.530Z,78.50
2019-04-14T09:22:12.975Z,79.20
2019-04-14T09:24:41.495Z,79.30
2019-04-14T09:27:10.291Z,79.20
2019-04-14T09:29:38.788Z,77.80
2019-04-14T09:32:08.879Z,77.00
2019-04-14T09:34:37.325Z,75.90
2019-04-14T09:37:05.770Z,75.90
2019-04-14T09:39:34.225Z,75.80
2019-04-14T09:42:02.921Z,75.40
2019-04-14T09:44:31.365Z,73.70
2019-04-14T09:46:59.826Z,73.80
2019-04-14T09:49:28.275Z,75.10
2019-04-14T09:51:56.704Z,75.40
2019-04-14T09:54:25.151Z,75.20
2019-04-14T09:56:53.599Z,75.60
2019-04-14T09:59:22.073Z,74.10
2019-04-14T10:01:50.509Z,74.00
2019-04-14T10:04:18.934Z,72.00
2019-04-14T10:06:47.367Z,72.90
2019-04-14T10:09:15.889Z,73.00
2019-04-14T10:11:49.018Z,72.70
2019-04-14T10:14:14.657Z,72.70
2019-04-14T10:16:43.146Z,72.80
2019-04-14T10:19:11.607Z,72.70
2019-04-14T10:21:40.628Z,71.90
2019-04-14T10:24:09.068Z,69.50
2019-04-14T10:26:37.524Z,67.40
2019-04-14T10:29:06.009Z,68.80
2019-04-14T10:31:34.529Z,68.00
2019-04-14T10:34:03.011Z,68.50
2019-04-14T10:36:33.361Z,66.70
2019-04-14T10:39:01.793Z,67.60
2019-04-14T10:41:30.624Z,68.90
2019-04-14T10:43:59.122Z,68.00
2019-04-14T10:46:27.560Z,66.20
2019-04-14T10:48:56.001Z,64.30
2019-04-14T10:51:30.724Z,66.30
2019-04-14T10:53:54.612Z,68.70
2019-04-14T10:56:23.066Z,67.40
2019-04-14T10:58:51.510Z,67.70
2019-04-14T11:01:19.960Z,68.10
2019-04-14T11:03:48.407Z,68.20
2019-04-14T11:06:24.533Z,67.40
2019-04-14T11:08:52.965Z,64.80
2019-04-14T11:11:21.413Z,66.20
2019-04-14T11:13:49.857Z,66.00
2019-04-14T11:16:18.410Z,62.70
2019-04-14T11:18:46.931Z,65.50
2019-04-14T11:21:15.430Z,66.70
2019-04-14T11:23:43.840Z,66.70
2019-04-14T11:26:12.664Z,64.90
2019-04-14T11:28:41.101Z,62.50
2019-04-14T11:31:09.985Z,62.60
2019-04-14T11:33:55.950Z,62.30
2019-04-14T11:36:28.512Z,62.10
2019-04-14T11:39:01.440Z,60.00
2019-04-14T11:41:29.891Z,62.50
2019-04-14T11:43:58.345Z,63.70
2019-04-14T11:46:26.817Z,61.60
2019-04-14T11:48:55.248Z,62.30
2019-04-14T11:51:23.697Z,62.30
2019-04-14T11:53:52.117Z,62.60
2019-04-14T11:56:20.588Z,61.50
2019-04-14T11:58:49.074Z,60.80
2019-04-14T12:01:19.265Z,60.30
2019-04-14T12:03:52.645Z,63.10
2019-04-14T12:06:22.732Z,63.00
2019-04-14T12:08:56.167Z,61.50
2019-04-14T12:11:24.617Z,62.20
2019-04-14T12:13:53.072Z,61.20
2019-04-14T12:16:21.645Z,62.20
2019-04-14T12:18:50.068Z,64.10
2019-04-14T12:21:18.551Z,63.80
2019-04-14T12:23:50.856Z,66.60
2019-04-14T12:26:19.312Z,66.00
2019-04-14T12:28:47.787Z,67.30
2019-04-14T12:31:17.450Z,68.30
2019-04-14T12:33:47.811Z,68.70
2019-04-14T12:36:16.333Z,64.00
2019-04-14T12:38:45.171Z,63.80
2019-04-14T12:41:15.644Z,64.20
2019-04-14T12:43:45.716Z,65.20
2019-04-14T12:46:18.515Z,66.30
2019-04-14T12:48:48.647Z,66.70
2019-04-14T12:51:20.501Z,67.10
2019-04-14T12:53:48.885Z,68.00
2019-04-14T12:56:19.042Z,67.60
2019-04-14T12:59:00.974Z,68.20
2019-04-14T13:01:31.150Z,70.20
2019-04-14T13:03:59.673Z,68.60
2019-04-14T13:06:28.128Z,68.70
2019-04-14T13:08:57.043Z,67.10
2019-04-14T13:11:25.840Z,66.80
2019-04-14T13:13:54.293Z,63.70
2019-04-14T13:16:22.749Z,64.20
2019-04-14T13:18:51.690Z,65.40
2019-04-14T13:21:20.139Z,65.10
2019-04-14T13:23:48.634Z,66.20
2019-04-14T13:26:17.156Z,65.30
2019-04-14T13:28:45.619Z,65.70
2019-04-14T13:31:14.046Z,65.90
2019-04-14T13:33:42.490Z,64.10
2019-04-14T13:36:10.948Z,62.30
2019-04-14T13:38:39.383Z,63.20
2019-04-14T13:41:07.828Z,63.20
2019-04-14T13:43:36.300Z,61.10
2019-04-14T13:46:04.839Z,60.20
2019-04-14T13:48:33.276Z,60.30
2019-04-14T13:51:01.734Z,62.00
2019-04-14T13:53:30.172Z,60.10
2019-04-14T13:55:58.604Z,56.30
2019-04-14T13:58:27.450Z,54.20
2019-04-14T14:00:55.934Z,53.80
2019-04-14T14:03:24.439Z,54.00
2019-04-14T14:05:53.197Z,56.20
2019-04-14T14:08:21.762Z,56.20
2019-04-14T14:10:51.883Z,56.90
2019-04-14T14:13:22.025Z,59.10
2019-04-14T14:16:10.165Z,58.80
2019-04-14T14:18:45.973Z,59.90
2019-04-14T14:21:16.434Z,60.30
2019-04-14T14:23:58.533Z,59.40
2019-04-14T14:26:28.607Z,58.80
2019-04-14T14:28:57.064Z,59.70
2019-04-14T14:31:25.513Z,59.70
2019-04-14T14:33:53.952Z,59.60
2019-04-14T14:36:22.397Z,55.80
2019-04-14T14:38:50.900Z,55.10
2019-04-14T14:41:19.325Z,53.90
2019-04-14T14:43:47.800Z,54.10
2019-04-14T14:46:36.852Z,54.90
2019-04-14T14:49:09.027Z,55.40
2019-04-14T14:51:51.053Z,56.70
2019-04-14T14:54:19.508Z,57.60
2019-04-14T14:56:47.967Z,57.00
2019-04-14T14:59:16.410Z,58.70
2019-04-14T15:01:44.933Z,59.00
2019-04-14T15:04:13.401Z,59.70
2019-04-14T15:06:41.822Z,59.30
2019-04-14T15:09:11.319Z,60.30
2019-04-14T15:11:39.736Z,59.60
2019-04-14T15:14:08.197Z,60.10
2019-04-14T15:16:36.728Z,54.90
2019-04-14T15:19:05.166Z,53.60
2019-04-14T15:21:33.600Z,52.00
2019-04-14T15:24:02.085Z,50.60
2019-04-14T15:26:30.613Z,49.00
2019-04-14T15:28:59.105Z,48.00
2019-04-14T15:31:27.617Z,46.40
2019-04-14T15:33:56.053Z,46.00
2019-04-14T15:36:24.992Z,46.10
2019-04-14T15:38:53.455Z,46.50
2019-04-14T15:41:21.876Z,47.70
2019-04-14T15:43:50.364Z,49.20
2019-04-14T15:46:19.230Z,50.60
2019-04-14T15:48:47.780Z,51.70
2019-04-14T15:51:16.221Z,53.30
2019-04-14T15:53:44.688Z,54.80
2019-04-14T15:56:14.778Z,54.90
2019-04-14T15:58:50.580Z,55.40
2019-04-14T16:01:26.324Z,56.00
2019-04-14T16:04:12.616Z,54.10
2019-04-14T16:06:45.722Z,53.10
2019-04-14T16:09:21.931Z,51.90
2019-04-14T16:12:04.225Z,51.90
2019-04-14T16:14:34.469Z,50.70
2019-04-14T16:17:19.516Z,48.80
2019-04-14T16:20:04.675Z,45.60
2019-04-14T16:22:33.155Z,46.80
2019-04-14T16:25:01.674Z,45.40
2019-04-14T16:27:37.644Z,44.00
2019-04-14T16:30:24.457Z,44.80
2019-04-14T16:33:03.155Z,44.90
2019-04-14T16:35:33.264Z,45.70
2019-04-14T16:38:01.746Z,48.20
2019-04-14T16:40:30.284Z,50.20
2019-04-14T16:42:58.755Z,50.90
2019-04-14T16:45:27.196Z,51.70
2019-04-14T16:47:55.984Z,52.50
2019-04-14T16:50:24.501Z,52.60
2019-04-14T16:52:54.627Z,53.90
2019-04-14T16:55:40.959Z,54.80
2019-04-14T16:58:11.042Z,56.00
2019-04-14T17:00:41.125Z,56.40
2019-04-14T17:03:09.549Z,56.90
2019-04-14T17:05:39.211Z,57.80
2019-04-14T17:08:08.381Z,57.80
2019-04-14T17:10:36.823Z,59.20
2019-04-14T17:13:08.692Z,59.00
2019-04-14T17:15:41.572Z,59.00
2019-04-14T17:18:27.157Z,59.30
2019-04-14T17:21:11.957Z,59.30
2019-04-14T17:23:42.044Z,60.50
2019-04-14T17:26:12.137Z,60.80
2019-04-14T17:28:48.573Z,61.20
2019-04-14T17:31:24.893Z,61.50
2019-04-14T17:34:06.912Z,61.70
2019-04-14T17:36:53.593Z,62.10
2019-04-14T17:39:23.653Z,62.20
2019-04-14T17:42:03.348Z,62.80
2019-04-14T17:44:39.603Z,63.10
2019-04-14T17:47:27.657Z,63.60
2019-04-14T17:50:00.758Z,63.80
2019-04-14T17:52:37.109Z,64.60
2019-04-14T17:55:25.584Z,65.30
2019-04-14T17:58:01.416Z,65.60
2019-04-14T18:00:48.029Z,66.00
2019-04-14T18:03:20.929Z,66.60
2019-04-14T18:06:09.078Z,66.70
2019-04-14T18:08:54.015Z,67.20
2019-04-14T18:11:30.289Z,67.60
2019-04-14T18:14:00.382Z,68.00
2019-04-14T18:16:46.973Z,68.20
2019-04-14T18:19:20.030Z,68.50
2019-04-14T18:21:48.461Z,68.60
2019-04-14T18:24:16.904Z,68.90
2019-04-14T18:26:45.369Z,69.30
2019-04-14T18:29:31.920Z,69.30
2019-04-14T18:32:07.838Z,69.30
2019-04-14T18:34:50.000Z,69.70
2019-04-14T18:37:29.197Z,69.70
2019-04-14T18:40:05.423Z,69.80
2019-04-14T18:42:38.083Z,69.70
2019-04-14T18:45:15.468Z,70.00
2019-04-14T18:47:54.745Z,70.20
2019-04-14T18:50:43.045Z,70.20
2019-04-14T18:53:13.177Z,70.30
2019-04-14T18:55:45.938Z,70.60
2019-04-14T18:58:18.801Z,70.60
2019-04-14T19:00:51.841Z,71.10
2019-04-14T19:03:20.294Z,71.50
2019-04-14T19:05:48.757Z,71.90
2019-04-14T19:08:17.212Z,72.20
2019-04-14T19:10:47.308Z,72.30
2019-04-14T19:13:20.054Z,72.80
2019-04-14T19:15:50.143Z,72.90
2019-04-14T19:18:22.353Z,73.20
2019-04-14T19:20:52.439Z,73.60
2019-04-14T19:23:21.179Z,73.80
2019-04-14T19:25:49.604Z,74.00
2019-04-14T19:28:18.062Z,74.30
2019-04-14T19:30:46.522Z,74.40
2019-04-14T19:33:17.981Z,74.80
2019-04-14T19:35:46.420Z,75.10
2019-04-14T19:38:14.873Z,75.30
2019-04-14T19:40:43.311Z,75.30
2019-04-14T19:43:23.101Z,75.30
2019-04-14T19:45:41.905Z,75.10
2019-04-14T19:48:10.390Z,75.20
2019-04-14T19:50:38.831Z,75.30
2019-04-14T19:53:07.290Z,75.50
2019-04-14T19:55:37.217Z,75.60
2019-04-14T19:58:06.061Z,76.00
2019-04-14T20:00:34.488Z,75.90
2019-04-14T20:03:02.928Z,75.80
2019-04-14T20:05:31.381Z,75.80
2019-04-14T20:07:59.848Z,76.20
2019-04-14T20:10:28.298Z,76.40
2019-04-14T20:12:56.754Z,76.40
2019-04-14T20:15:26.820Z,76.60
2019-04-14T20:18:03.068Z,77.10
2019-04-14T20:20:48.129Z,77.40
2019-04-14T20:23:18.712Z,78.00
2019-04-14T20:26:03.984Z,78.20
2019-04-14T20:28:40.052Z,78.40
2019-04-14T20:31:19.355Z,78.50
2019-04-14T20:33:47.808Z,78.80
2019-04-14T20:36:16.285Z,78.80
2019-04-14T20:38:44.716Z,79.10
2019-04-14T20:41:13.180Z,79.60
2019-04-14T20:43:41.962Z,79.50
2019-04-14T20:46:10.402Z,79.60
2019-04-14T20:48:38.860Z,79.80
2019-04-14T20:51:07.311Z,79.90
2019-04-14T20:53:35.766Z,80.10
2019-04-14T20:56:04.190Z,80.10
2019-04-14T20:58:32.946Z,80.20
2019-04-14T21:01:01.385Z,80.50
2019-04-14T21:03:31.495Z,80.60
2019-04-14T21:06:07.093Z,80.80
2019-04-14T21:08:55.294Z,80.60
2019-04-14T21:11:25.664Z,80.80
2019-04-14T21:13:55.769Z,81.00
2019-04-14T21:16:28.528Z,81.10
2019-04-14T21:18:58.613Z,81.20
2019-04-14T21:21:40.581Z,81.30
2019-04-14T21:24:26.848Z,81.30
2019-04-14T21:26:59.886Z,81.40
2019-04-14T21:29:30.379Z,81.30
2019-04-14T21:32:06.352Z,81.60
2019-04-14T21:34:36.453Z,81.60
2019-04-14T21:37:15.196Z,81.90
2019-04-14T21:39:45.289Z,82.20
2019-04-14T21:42:14.398Z,82.20
2019-04-14T21:44:42.904Z,82.20
2019-04-14T21:47:11.354Z,82.70
2019-04-14T21:49:39.799Z,82.70
2019-04-14T21:52:09.876Z,82.60
2019-04-14T21:54:40.281Z,82.60
2019-04-14T21:57:10.351Z,82.60
2019-04-14T21:59:58.665Z,82.80
2019-04-14T22:02:45.140Z,83.00
2019-04-14T22:05:30.428Z,83.50
2019-04-14T22:08:16.922Z,83.60
2019-04-14T22:11:05.088Z,83.60
2019-04-14T22:13:33.549Z,84.00
2019-04-14T22:16:02.077Z,84.60
2019-04-14T22:18:30.508Z,85.20
2019-04-14T22:20:59.049Z,85.40
2019-04-14T22:23:27.513Z,85.60
2019-04-14T22:25:56.022Z,85.60
2019-04-14T22:28:24.482Z,86.30
2019-04-14T22:30:53.015Z,87.90
2019-04-14T22:33:21.469Z,87.80
2019-04-14T22:35:49.910Z,87.80
2019-04-14T22:38:18.383Z,87.70
2019-04-14T22:40:47.210Z,87.70
2019-04-14T22:43:15.714Z,87.40
2019-04-14T22:45:44.250Z,87.30
2019-04-14T22:48:12.690Z,87.20
2019-04-14T22:50:41.142Z,87.20
2019-04-14T22:53:09.596Z,87.10
2019-04-14T22:55:38.059Z,87.10
2019-04-14T22:58:06.630Z,87.30
2019-04-14T23:00:42.576Z,87.70
2019-04-14T23:03:30.882Z,87.90
2019-04-14T23:06:07.129Z,88.30
2019-04-14T23:08:43.013Z,88.60
2019-04-14T23:11:18.732Z,88.70
2019-04-14T23:14:05.152Z,88.80
2019-04-14T23:16:38.262Z,88.80
2019-04-14T23:19:14.142Z,88.80
2019-04-14T23:21:44.211Z,89.10
2019-04-14T23:24:22.912Z,89.50
2019-04-14T23:26:52.922Z,89.50
2019-04-14T23:29:21.529Z,89.50
2019-04-14T23:31:50.072Z,89.40
2019-04-14T23:34:18.880Z,89.40
2019-04-14T23:36:47.335Z,89.50
2019-04-14T23:39:15.760Z,89.60
2019-04-14T23:41:44.212Z,89.70
2019-04-14T23:44:12.672Z,89.90
2019-04-14T23:46:41.114Z,90.00
2019-04-14T23:49:09.590Z,90.10
2019-04-14T23:51:38.039Z,90.10
2019-04-14T23:54:06.498Z,90.00
2019-04-14T23:56:35.046Z,90.10
2019-04-14T23:59:03.969Z,90.10
